sensor_id;sensor_type;location;lat;lon;timestamp;temperature;humidity
13440;DHT22;6792;57.698;11.946;2023-02-01T00:00:24;11.70;51.60
13440;DHT22;6792;57.698;11.946;2023-02-01T00:02:53;11.70;51.60
13440;DHT22;6792;57.698;11.946;2023-02-01T00:05:22;11.70;51.60
13440;DHT22;6792;57.698;11.946;2023-02-01T00:07:51;11.70;51.70
13440;DHT22;6792;57.698;11.946;2023-02-01T00:10:20;11.70;51.70
13440;DHT22;6792;57.698;11.946;2023-02-01T00:12:49;11.70;51.10
13440;DHT22;6792;57.698;11.946;2023-02-01T00:15:19;11.70;51.70
13440;DHT22;6792;57.698;11.946;2023-02-01T00:17:48;11.70;51.70
13440;DHT22;6792;57.698;11.946;2023-02-01T00:20:19;11.70;51.80
13440;DHT22;6792;57.698;11.946;2023-02-01T00:22:48;11.60;51.80
13440;DHT22;6792;57.698;11.946;2023-02-01T00:25:17;11.60;51.90
13440;DHT22;6792;57.698;11.946;2023-02-01T00:27:50;11.60;51.90
13440;DHT22;6792;57.698;11.946;2023-02-01T00:30:19;11.60;51.90
13440;DHT22;6792;57.698;11.946;2023-02-01T00:32:48;11.60;52.00
13440;DHT22;6792;57.698;11.946;2023-02-01T00:35:17;11.60;52.00
13440;DHT22;6792;57.698;11.946;2023-02-01T00:37:48;11.60;52.10
13440;DHT22;6792;57.698;11.946;2023-02-01T00:40:20;11.60;52.10
13440;DHT22;6792;57.698;11.946;2023-02-01T00:42:49;11.60;52.20
13440;DHT22;6792;57.698;11.946;2023-02-01T00:45:19;11.60;51.70
13440;DHT22;6792;57.698;11.946;2023-02-01T00:47:48;11.60;52.30
13440;DHT22;6792;57.698;11.946;2023-02-01T00:50:17;11.60;52.20
13440;DHT22;6792;57.698;11.946;2023-02-01T00:52:46;11.60;52.10
13440;DHT22;6792;57.698;11.946;2023-02-01T00:55:15;11.60;52.10
13440;DHT22;6792;57.698;11.946;2023-02-01T00:57:44;11.60;52.20
13440;DHT22;6792;57.698;11.946;2023-02-01T01:00:16;11.60;51.70
13440;DHT22;6792;57.698;11.946;2023-02-01T01:02:45;11.60;52.20
13440;DHT22;6792;57.698;11.946;2023-02-01T01:05:14;11.60;52.20
13440;DHT22;6792;57.698;11.946;2023-02-01T01:07:45;11.60;52.20
13440;DHT22;6792;57.698;11.946;2023-02-01T01:10:17;11.60;51.60
13440;DHT22;6792;57.698;11.946;2023-02-01T01:12:46;11.60;51.60
13440;DHT22;6792;57.698;11.946;2023-02-01T01:15:15;11.70;52.10
13440;DHT22;6792;57.698;11.946;2023-02-01T01:17:44;11.70;52.10
13440;DHT22;6792;57.698;11.946;2023-02-01T01:20:14;11.70;52.10
13440;DHT22;6792;57.698;11.946;2023-02-01T01:22:44;11.70;52.00
13440;DHT22;6792;57.698;11.946;2023-02-01T01:25:13;11.70;52.10
13440;DHT22;6792;57.698;11.946;2023-02-01T01:27:45;11.70;52.10
13440;DHT22;6792;57.698;11.946;2023-02-01T01:30:15;11.60;51.60
13440;DHT22;6792;57.698;11.946;2023-02-01T01:32:44;11.70;51.70
13440;DHT22;6792;57.698;11.946;2023-02-01T01:35:13;11.70;52.30
13440;DHT22;6792;57.698;11.946;2023-02-01T01:37:42;11.70;52.20
13440;DHT22;6792;57.698;11.946;2023-02-01T01:40:12;11.70;52.20
13440;DHT22;6792;57.698;11.946;2023-02-01T01:42:43;11.70;52.30
13440;DHT22;6792;57.698;11.946;2023-02-01T01:45:21;11.70;52.20
13440;DHT22;6792;57.698;11.946;2023-02-01T01:48:04;11.70;52.20
13440;DHT22;6792;57.698;11.946;2023-02-01T01:50:37;11.70;52.20
13440;DHT22;6792;57.698;11.946;2023-02-01T01:53:11;11.60;51.60
13440;DHT22;6792;57.698;11.946;2023-02-01T01:55:42;11.70;52.30
13440;DHT22;6792;57.698;11.946;2023-02-01T01:58:14;11.70;52.30
13440;DHT22;6792;57.698;11.946;2023-02-01T02:00:44;11.70;52.30
13440;DHT22;6792;57.698;11.946;2023-02-01T02:03:18;11.70;52.30
13440;DHT22;6792;57.698;11.946;2023-02-01T02:05:49;11.60;52.30
13440;DHT22;6792;57.698;11.946;2023-02-01T02:08:20;11.70;52.30
13440;DHT22;6792;57.698;11.946;2023-02-01T02:10:49;11.70;52.30
13440;DHT22;6792;57.698;11.946;2023-02-01T02:13:30;11.70;52.20
13440;DHT22;6792;57.698;11.946;2023-02-01T02:16:05;11.70;52.30
13440;DHT22;6792;57.698;11.946;2023-02-01T02:18:38;11.70;51.70
13440;DHT22;6792;57.698;11.946;2023-02-01T02:21:15;11.70;51.70
13440;DHT22;6792;57.698;11.946;2023-02-01T02:24:19;11.80;51.60
13440;DHT22;6792;57.698;11.946;2023-02-01T02:27:01;11.80;52.20
13440;DHT22;6792;57.698;11.946;2023-02-01T02:35:40;11.90;51.60
13440;DHT22;6792;57.698;11.946;2023-02-01T02:38:15;11.90;51.70
13440;DHT22;6792;57.698;11.946;2023-02-01T02:40:48;11.90;52.20
13440;DHT22;6792;57.698;11.946;2023-02-01T02:43:21;11.90;52.10
13440;DHT22;6792;57.698;11.946;2023-02-01T02:46:12;11.90;51.60
13440;DHT22;6792;57.698;11.946;2023-02-01T02:49:05;11.90;52.20
13440;DHT22;6792;57.698;11.946;2023-02-01T02:51:40;12.00;52.20
13440;DHT22;6792;57.698;11.946;2023-02-01T02:54:28;11.90;52.20
13440;DHT22;6792;57.698;11.946;2023-02-01T02:57:20;11.90;51.80
13440;DHT22;6792;57.698;11.946;2023-02-01T03:00:12;11.90;51.70
13440;DHT22;6792;57.698;11.946;2023-02-01T03:02:59;11.90;51.70
13440;DHT22;6792;57.698;11.946;2023-02-01T03:05:48;11.90;51.90
13440;DHT22;6792;57.698;11.946;2023-02-01T03:08:18;11.80;52.40
13440;DHT22;6792;57.698;11.946;2023-02-01T03:10:55;11.90;52.40
13440;DHT22;6792;57.698;11.946;2023-02-01T03:13:36;11.90;52.30
13440;DHT22;6792;57.698;11.946;2023-02-01T03:16:20;12.00;51.70
13440;DHT22;6792;57.698;11.946;2023-02-01T03:18:55;12.00;51.60
13440;DHT22;6792;57.698;11.946;2023-02-01T03:21:27;12.00;52.20
13440;DHT22;6792;57.698;11.946;2023-02-01T03:23:59;12.00;51.50
13440;DHT22;6792;57.698;11.946;2023-02-01T03:26:30;12.00;52.00
13440;DHT22;6792;57.698;11.946;2023-02-01T03:29:08;12.00;51.40
13440;DHT22;6792;57.698;11.946;2023-02-01T03:31:34;12.10;52.00
13440;DHT22;6792;57.698;11.946;2023-02-01T03:34:03;12.10;52.00
13440;DHT22;6792;57.698;11.946;2023-02-01T03:36:35;12.10;51.90
13440;DHT22;6792;57.698;11.946;2023-02-01T03:39:09;12.20;52.00
13440;DHT22;6792;57.698;11.946;2023-02-01T03:41:40;12.10;51.80
13440;DHT22;6792;57.698;11.946;2023-02-01T03:44:13;12.10;51.40
13440;DHT22;6792;57.698;11.946;2023-02-01T03:46:47;12.10;51.90
13440;DHT22;6792;57.698;11.946;2023-02-01T03:49:19;12.10;51.90
13440;DHT22;6792;57.698;11.946;2023-02-01T03:51:51;12.10;51.90
13440;DHT22;6792;57.698;11.946;2023-02-01T03:54:21;12.10;51.90
13440;DHT22;6792;57.698;11.946;2023-02-01T03:56:51;12.10;51.90
13440;DHT22;6792;57.698;11.946;2023-02-01T03:59:22;12.10;51.80
13440;DHT22;6792;57.698;11.946;2023-02-01T04:01:52;12.10;51.20
13440;DHT22;6792;57.698;11.946;2023-02-01T04:04:21;12.20;51.80
13440;DHT22;6792;57.698;11.946;2023-02-01T04:06:51;12.20;51.20
13440;DHT22;6792;57.698;11.946;2023-02-01T04:09:20;12.20;51.70
13440;DHT22;6792;57.698;11.946;2023-02-01T04:11:49;12.30;51.60
13440;DHT22;6792;57.698;11.946;2023-02-01T04:14:18;12.20;51.50
13440;DHT22;6792;57.698;11.946;2023-02-01T04:16:47;12.20;51.60
13440;DHT22;6792;57.698;11.946;2023-02-01T04:19:16;12.20;51.60
13440;DHT22;6792;57.698;11.946;2023-02-01T04:21:46;12.20;51.50
13440;DHT22;6792;57.698;11.946;2023-02-01T04:24:15;12.20;51.60
13440;DHT22;6792;57.698;11.946;2023-02-01T04:26:44;12.30;51.60
13440;DHT22;6792;57.698;11.946;2023-02-01T04:29:13;12.30;51.60
13440;DHT22;6792;57.698;11.946;2023-02-01T04:31:42;12.20;50.90
13440;DHT22;6792;57.698;11.946;2023-02-01T04:34:11;12.30;51.60
13440;DHT22;6792;57.698;11.946;2023-02-01T04:36:41;12.30;51.40
13440;DHT22;6792;57.698;11.946;2023-02-01T04:39:10;12.30;51.40
13440;DHT22;6792;57.698;11.946;2023-02-01T04:41:39;12.30;50.80
13440;DHT22;6792;57.698;11.946;2023-02-01T04:44:13;12.30;51.40
13440;DHT22;6792;57.698;11.946;2023-02-01T04:46:43;12.30;51.30
13440;DHT22;6792;57.698;11.946;2023-02-01T04:49:13;12.30;51.30
13440;DHT22;6792;57.698;11.946;2023-02-01T04:51:42;12.30;51.20
13440;DHT22;6792;57.698;11.946;2023-02-01T04:54:11;12.30;51.30
13440;DHT22;6792;57.698;11.946;2023-02-01T04:56:40;12.30;51.20
13440;DHT22;6792;57.698;11.946;2023-02-01T04:59:11;12.30;51.20
13440;DHT22;6792;57.698;11.946;2023-02-01T05:01:40;12.30;50.60
13440;DHT22;6792;57.698;11.946;2023-02-01T05:04:13;12.30;51.20
13440;DHT22;6792;57.698;11.946;2023-02-01T05:06:42;12.30;51.20
13440;DHT22;6792;57.698;11.946;2023-02-01T05:09:12;12.30;51.20
13440;DHT22;6792;57.698;11.946;2023-02-01T05:11:41;12.30;51.20
13440;DHT22;6792;57.698;11.946;2023-02-01T05:14:28;12.30;50.70
13440;DHT22;6792;57.698;11.946;2023-02-01T05:16:57;12.20;51.40
13440;DHT22;6792;57.698;11.946;2023-02-01T05:19:28;12.20;51.40
13440;DHT22;6792;57.698;11.946;2023-02-01T05:21:57;12.20;51.40
13440;DHT22;6792;57.698;11.946;2023-02-01T05:24:29;12.20;51.40
13440;DHT22;6792;57.698;11.946;2023-02-01T05:26:57;12.20;51.30
13440;DHT22;6792;57.698;11.946;2023-02-01T05:29:28;12.20;51.40
13440;DHT22;6792;57.698;11.946;2023-02-01T05:31:57;12.20;51.40
13440;DHT22;6792;57.698;11.946;2023-02-01T05:34:27;12.20;51.40
13440;DHT22;6792;57.698;11.946;2023-02-01T05:36:59;12.20;51.30
13440;DHT22;6792;57.698;11.946;2023-02-01T05:39:30;12.20;51.30
13440;DHT22;6792;57.698;11.946;2023-02-01T05:42:02;12.20;51.30
13440;DHT22;6792;57.698;11.946;2023-02-01T05:44:34;12.20;51.30
13440;DHT22;6792;57.698;11.946;2023-02-01T05:47:05;12.20;51.30
13440;DHT22;6792;57.698;11.946;2023-02-01T05:49:35;12.20;50.80
13440;DHT22;6792;57.698;11.946;2023-02-01T05:52:04;12.20;51.30
13440;DHT22;6792;57.698;11.946;2023-02-01T05:54:33;12.20;51.30
13440;DHT22;6792;57.698;11.946;2023-02-01T05:57:03;12.20;51.30
13440;DHT22;6792;57.698;11.946;2023-02-01T05:59:32;12.10;51.20
13440;DHT22;6792;57.698;11.946;2023-02-01T06:02:01;12.20;51.30
13440;DHT22;6792;57.698;11.946;2023-02-01T06:04:30;12.20;51.40
13440;DHT22;6792;57.698;11.946;2023-02-01T06:06:59;12.10;50.60
13440;DHT22;6792;57.698;11.946;2023-02-01T06:09:31;12.20;51.20
13440;DHT22;6792;57.698;11.946;2023-02-01T06:12:00;12.10;50.60
13440;DHT22;6792;57.698;11.946;2023-02-01T06:14:29;12.20;51.10
13440;DHT22;6792;57.698;11.946;2023-02-01T06:17:03;12.10;51.10
13440;DHT22;6792;57.698;11.946;2023-02-01T06:19:36;12.10;50.60
13440;DHT22;6792;57.698;11.946;2023-02-01T06:22:08;12.10;51.20
13440;DHT22;6792;57.698;11.946;2023-02-01T06:27:29;12.10;50.70
13440;DHT22;6792;57.698;11.946;2023-02-01T06:29:59;12.20;51.20
13440;DHT22;6792;57.698;11.946;2023-02-01T06:32:28;12.20;51.30
13440;DHT22;6792;57.698;11.946;2023-02-01T06:34:57;12.30;50.70
13440;DHT22;6792;57.698;11.946;2023-02-01T06:37:28;12.30;51.30
13440;DHT22;6792;57.698;11.946;2023-02-01T06:39:59;12.30;51.30
13440;DHT22;6792;57.698;11.946;2023-02-01T06:42:31;12.30;51.40
13440;DHT22;6792;57.698;11.946;2023-02-01T06:45:03;12.30;51.30
13440;DHT22;6792;57.698;11.946;2023-02-01T06:47:33;12.20;50.80
13440;DHT22;6792;57.698;11.946;2023-02-01T06:50:03;12.20;50.80
13440;DHT22;6792;57.698;11.946;2023-02-01T06:52:35;12.20;51.40
13440;DHT22;6792;57.698;11.946;2023-02-01T06:55:05;12.30;51.40
13440;DHT22;6792;57.698;11.946;2023-02-01T06:57:35;12.20;50.80
13440;DHT22;6792;57.698;11.946;2023-02-01T07:00:06;12.20;51.40
13440;DHT22;6792;57.698;11.946;2023-02-01T07:02:35;12.20;51.40
13440;DHT22;6792;57.698;11.946;2023-02-01T07:05:05;12.10;50.80
13440;DHT22;6792;57.698;11.946;2023-02-01T07:07:34;12.20;51.40
13440;DHT22;6792;57.698;11.946;2023-02-01T07:10:04;12.20;51.30
13440;DHT22;6792;57.698;11.946;2023-02-01T07:12:33;12.10;51.20
13440;DHT22;6792;57.698;11.946;2023-02-01T07:15:04;12.10;50.70
13440;DHT22;6792;57.698;11.946;2023-02-01T07:17:33;12.10;51.20
13440;DHT22;6792;57.698;11.946;2023-02-01T07:20:03;12.10;51.20
13440;DHT22;6792;57.698;11.946;2023-02-01T07:22:32;12.10;51.20
13440;DHT22;6792;57.698;11.946;2023-02-01T07:25:04;12.10;51.30
13440;DHT22;6792;57.698;11.946;2023-02-01T07:27:35;12.10;50.80
13440;DHT22;6792;57.698;11.946;2023-02-01T07:30:05;12.10;51.40
13440;DHT22;6792;57.698;11.946;2023-02-01T07:32:35;12.10;51.40
13440;DHT22;6792;57.698;11.946;2023-02-01T07:35:07;12.10;51.30
13440;DHT22;6792;57.698;11.946;2023-02-01T07:37:41;12.00;50.80
13440;DHT22;6792;57.698;11.946;2023-02-01T07:40:31;12.00;50.80
13440;DHT22;6792;57.698;11.946;2023-02-01T07:43:00;13.50;51.40
13440;DHT22;6792;57.698;11.946;2023-02-01T07:45:29;12.10;51.30
13440;DHT22;6792;57.698;11.946;2023-02-01T07:47:58;12.10;51.20
13440;DHT22;6792;57.698;11.946;2023-02-01T07:50:28;12.10;50.70
13440;DHT22;6792;57.698;11.946;2023-02-01T07:53:00;12.00;50.60
13440;DHT22;6792;57.698;11.946;2023-02-01T07:55:29;12.00;51.20
13440;DHT22;6792;57.698;11.946;2023-02-01T07:58:01;12.00;51.20
13440;DHT22;6792;57.698;11.946;2023-02-01T08:00:30;12.00;50.60
13440;DHT22;6792;57.698;11.946;2023-02-01T08:03:17;12.00;50.50
13440;DHT22;6792;57.698;11.946;2023-02-01T08:05:46;12.00;51.20
13440;DHT22;6792;57.698;11.946;2023-02-01T08:08:15;12.00;51.20
13440;DHT22;6792;57.698;11.946;2023-02-01T08:10:44;12.00;51.10
13440;DHT22;6792;57.698;11.946;2023-02-01T08:13:13;12.00;51.00
13440;DHT22;6792;57.698;11.946;2023-02-01T08:15:43;12.00;50.90
13440;DHT22;6792;57.698;11.946;2023-02-01T08:18:12;12.00;50.90
13440;DHT22;6792;57.698;11.946;2023-02-01T08:20:45;10.70;49.70
13440;DHT22;6792;57.698;11.946;2023-02-01T08:23:15;12.10;50.40
13440;DHT22;6792;57.698;11.946;2023-02-01T08:25:48;12.10;50.80
13440;DHT22;6792;57.698;11.946;2023-02-01T08:28:18;12.10;50.80
13440;DHT22;6792;57.698;11.946;2023-02-01T08:30:49;12.20;50.70
13440;DHT22;6792;57.698;11.946;2023-02-01T08:33:20;12.20;50.70
13440;DHT22;6792;57.698;11.946;2023-02-01T08:35:49;12.20;50.60
13440;DHT22;6792;57.698;11.946;2023-02-01T08:38:18;12.20;50.60
13440;DHT22;6792;57.698;11.946;2023-02-01T08:40:47;12.30;50.60
13440;DHT22;6792;57.698;11.946;2023-02-01T08:43:18;12.20;50.50
13440;DHT22;6792;57.698;11.946;2023-02-01T08:45:47;12.20;50.50
13440;DHT22;6792;57.698;11.946;2023-02-01T08:48:16;12.20;50.50
13440;DHT22;6792;57.698;11.946;2023-02-01T08:50:45;12.30;50.60
13440;DHT22;6792;57.698;11.946;2023-02-01T08:53:14;12.30;50.70
13440;DHT22;6792;57.698;11.946;2023-02-01T08:55:46;12.30;50.60
13440;DHT22;6792;57.698;11.946;2023-02-01T08:58:15;12.40;50.60
13440;DHT22;6792;57.698;11.946;2023-02-01T09:03:26;12.40;50.00
13440;DHT22;6792;57.698;11.946;2023-02-01T09:06:01;12.40;50.60
13440;DHT22;6792;57.698;11.946;2023-02-01T09:08:35;12.40;50.00
13440;DHT22;6792;57.698;11.946;2023-02-01T09:11:07;12.40;50.60
13440;DHT22;6792;57.698;11.946;2023-02-01T09:13:39;12.40;50.60
13440;DHT22;6792;57.698;11.946;2023-02-01T09:16:10;12.40;50.70
13440;DHT22;6792;57.698;11.946;2023-02-01T09:18:40;12.40;50.80
13440;DHT22;6792;57.698;11.946;2023-02-01T09:21:09;12.40;50.80
13440;DHT22;6792;57.698;11.946;2023-02-01T09:23:38;12.40;50.20
13440;DHT22;6792;57.698;11.946;2023-02-01T09:26:11;12.50;50.80
13440;DHT22;6792;57.698;11.946;2023-02-01T09:28:43;12.50;50.80
13440;DHT22;6792;57.698;11.946;2023-02-01T09:31:12;12.50;50.80
13440;DHT22;6792;57.698;11.946;2023-02-01T09:33:44;12.50;50.90
13440;DHT22;6792;57.698;11.946;2023-02-01T09:36:16;12.50;51.00
13440;DHT22;6792;57.698;11.946;2023-02-01T09:38:47;12.50;51.00
13440;DHT22;6792;57.698;11.946;2023-02-01T09:41:22;12.50;51.10
13440;DHT22;6792;57.698;11.946;2023-02-01T09:43:54;12.50;50.60
13440;DHT22;6792;57.698;11.946;2023-02-01T09:46:35;12.50;51.20
13440;DHT22;6792;57.698;11.946;2023-02-01T09:51:53;12.50;50.70
13440;DHT22;6792;57.698;11.946;2023-02-01T09:54:24;12.50;50.80
13440;DHT22;6792;57.698;11.946;2023-02-01T09:56:58;12.50;51.60
13440;DHT22;6792;57.698;11.946;2023-02-01T09:59:31;12.50;51.40
13440;DHT22;6792;57.698;11.946;2023-02-01T10:02:03;12.60;50.90
13440;DHT22;6792;57.698;11.946;2023-02-01T10:04:34;12.60;51.40
13440;DHT22;6792;57.698;11.946;2023-02-01T10:07:08;12.60;50.90
13440;DHT22;6792;57.698;11.946;2023-02-01T10:09:46;12.60;50.80
13440;DHT22;6792;57.698;11.946;2023-02-01T10:15:21;12.70;50.90
13440;DHT22;6792;57.698;11.946;2023-02-01T10:18:03;12.70;51.40
13440;DHT22;6792;57.698;11.946;2023-02-01T10:20:37;12.70;51.40
13440;DHT22;6792;57.698;11.946;2023-02-01T10:23:11;12.70;50.90
13440;DHT22;6792;57.698;11.946;2023-02-01T10:25:47;12.80;51.50
13440;DHT22;6792;57.698;11.946;2023-02-01T10:28:17;12.80;51.40
13440;DHT22;6792;57.698;11.946;2023-02-01T10:30:48;12.80;51.80
13440;DHT22;6792;57.698;11.946;2023-02-01T10:33:22;12.80;51.40
13440;DHT22;6792;57.698;11.946;2023-02-01T10:35:52;12.80;51.40
13440;DHT22;6792;57.698;11.946;2023-02-01T10:38:24;12.80;51.60
13440;DHT22;6792;57.698;11.946;2023-02-01T10:40:59;12.80;51.50
13440;DHT22;6792;57.698;11.946;2023-02-01T10:43:27;12.80;51.00
13440;DHT22;6792;57.698;11.946;2023-02-01T10:45:57;12.80;51.60
13440;DHT22;6792;57.698;11.946;2023-02-01T10:48:26;12.80;50.90
13440;DHT22;6792;57.698;11.946;2023-02-01T10:50:58;12.90;51.70
13440;DHT22;6792;57.698;11.946;2023-02-01T10:53:35;12.90;51.50
13440;DHT22;6792;57.698;11.946;2023-02-01T10:56:10;12.90;51.10
13440;DHT22;6792;57.698;11.946;2023-02-01T10:58:46;12.90;51.70
13440;DHT22;6792;57.698;11.946;2023-02-01T11:01:20;13.00;51.10
13440;DHT22;6792;57.698;11.946;2023-02-01T11:04:00;13.00;51.70
13440;DHT22;6792;57.698;11.946;2023-02-01T11:06:36;13.00;51.80
13440;DHT22;6792;57.698;11.946;2023-02-01T11:09:21;13.00;51.90
13440;DHT22;6792;57.698;11.946;2023-02-01T11:11:58;13.10;52.50
13440;DHT22;6792;57.698;11.946;2023-02-01T11:14:39;13.10;51.80
13440;DHT22;6792;57.698;11.946;2023-02-01T11:17:25;13.10;51.80
13440;DHT22;6792;57.698;11.946;2023-02-01T11:19:59;13.10;51.30
13440;DHT22;6792;57.698;11.946;2023-02-01T11:22:28;13.10;51.90
13440;DHT22;6792;57.698;11.946;2023-02-01T11:25:02;13.10;52.00
13440;DHT22;6792;57.698;11.946;2023-02-01T11:27:34;13.20;51.90
13440;DHT22;6792;57.698;11.946;2023-02-01T11:30:04;13.20;52.00
13440;DHT22;6792;57.698;11.946;2023-02-01T11:32:34;13.20;51.90
13440;DHT22;6792;57.698;11.946;2023-02-01T11:35:05;12.80;51.80
13440;DHT22;6792;57.698;11.946;2023-02-01T11:37:38;13.30;52.00
13440;DHT22;6792;57.698;11.946;2023-02-01T11:40:23;13.30;52.00
13440;DHT22;6792;57.698;11.946;2023-02-01T11:43:08;13.30;52.00
13440;DHT22;6792;57.698;11.946;2023-02-01T11:45:38;14.40;51.90
13440;DHT22;6792;57.698;11.946;2023-02-01T11:48:14;13.30;52.00
13440;DHT22;6792;57.698;11.946;2023-02-01T11:50:46;13.20;51.30
13440;DHT22;6792;57.698;11.946;2023-02-01T11:53:28;13.30;51.90
13440;DHT22;6792;57.698;11.946;2023-02-01T11:56:07;13.30;51.40
13440;DHT22;6792;57.698;11.946;2023-02-01T11:59:05;13.30;51.90
13440;DHT22;6792;57.698;11.946;2023-02-01T12:01:53;13.30;51.40
13440;DHT22;6792;57.698;11.946;2023-02-01T12:05:02;13.40;51.30
13440;DHT22;6792;57.698;11.946;2023-02-01T12:07:41;13.40;51.40
13440;DHT22;6792;57.698;11.946;2023-02-01T12:10:19;13.30;52.00
13440;DHT22;6792;57.698;11.946;2023-02-01T12:12:53;12.40;51.00
13440;DHT22;6792;57.698;11.946;2023-02-01T12:15:29;13.40;51.40
13440;DHT22;6792;57.698;11.946;2023-02-01T12:21:03;13.40;51.30
13440;DHT22;6792;57.698;11.946;2023-02-01T12:23:41;13.40;51.90
13440;DHT22;6792;57.698;11.946;2023-02-01T12:26:35;13.40;51.30
13440;DHT22;6792;57.698;11.946;2023-02-01T12:29:26;13.40;51.30
13440;DHT22;6792;57.698;11.946;2023-02-01T12:38:00;13.50;51.20
13440;DHT22;6792;57.698;11.946;2023-02-01T12:40:46;13.50;51.30
13440;DHT22;6792;57.698;11.946;2023-02-01T12:43:19;13.50;51.30
13440;DHT22;6792;57.698;11.946;2023-02-01T12:45:54;13.50;51.30
13440;DHT22;6792;57.698;11.946;2023-02-01T12:48:27;13.60;51.30
13440;DHT22;6792;57.698;11.946;2023-02-01T12:51:00;13.60;51.30
13440;DHT22;6792;57.698;11.946;2023-02-01T12:53:33;13.60;51.30
13440;DHT22;6792;57.698;11.946;2023-02-01T12:56:06;13.70;51.80
13440;DHT22;6792;57.698;11.946;2023-02-01T12:58:40;13.70;51.20
13440;DHT22;6792;57.698;11.946;2023-02-01T13:01:15;13.70;51.80
13440;DHT22;6792;57.698;11.946;2023-02-01T13:03:52;13.80;51.30
13440;DHT22;6792;57.698;11.946;2023-02-01T13:06:23;13.80;51.80
13440;DHT22;6792;57.698;11.946;2023-02-01T13:08:57;13.80;51.20
13440;DHT22;6792;57.698;11.946;2023-02-01T13:11:29;13.80;51.10
13440;DHT22;6792;57.698;11.946;2023-02-01T13:14:03;13.80;51.70
13440;DHT22;6792;57.698;11.946;2023-02-01T13:16:39;13.80;51.10
13440;DHT22;6792;57.698;11.946;2023-02-01T13:19:12;13.80;51.70
13440;DHT22;6792;57.698;11.946;2023-02-01T13:21:45;13.80;51.10
13440;DHT22;6792;57.698;11.946;2023-02-01T13:24:23;13.80;51.70
13440;DHT22;6792;57.698;11.946;2023-02-01T13:26:54;13.70;51.70
13440;DHT22;6792;57.698;11.946;2023-02-01T13:29:24;13.70;51.80
13440;DHT22;6792;57.698;11.946;2023-02-01T13:32:03;13.70;51.90
13440;DHT22;6792;57.698;11.946;2023-02-01T13:34:45;13.70;51.20
13440;DHT22;6792;57.698;11.946;2023-02-01T13:37:26;13.70;51.30
13440;DHT22;6792;57.698;11.946;2023-02-01T13:40:08;13.70;51.30
13440;DHT22;6792;57.698;11.946;2023-02-01T13:42:42;13.60;51.30
13440;DHT22;6792;57.698;11.946;2023-02-01T13:45:16;13.60;51.40
13440;DHT22;6792;57.698;11.946;2023-02-01T13:47:47;13.60;52.00
13440;DHT22;6792;57.698;11.946;2023-02-01T13:50:26;13.60;52.00
13440;DHT22;6792;57.698;11.946;2023-02-01T13:52:58;13.70;52.00
13440;DHT22;6792;57.698;11.946;2023-02-01T13:55:33;13.70;52.00
13440;DHT22;6792;57.698;11.946;2023-02-01T13:58:10;13.60;51.40
13440;DHT22;6792;57.698;11.946;2023-02-01T14:00:39;13.70;52.00
13440;DHT22;6792;57.698;11.946;2023-02-01T14:03:12;13.70;51.50
13440;DHT22;6792;57.698;11.946;2023-02-01T14:06:14;13.70;52.00
13440;DHT22;6792;57.698;11.946;2023-02-01T14:08:44;13.60;51.40
13440;DHT22;6792;57.698;11.946;2023-02-01T14:11:41;13.60;52.10
13440;DHT22;6792;57.698;11.946;2023-02-01T14:14:50;13.50;51.50
13440;DHT22;6792;57.698;11.946;2023-02-01T14:17:39;13.40;51.80
13440;DHT22;6792;57.698;11.946;2023-02-01T14:23:18;13.40;53.00
13440;DHT22;6792;57.698;11.946;2023-02-01T14:26:08;13.30;51.90
13440;DHT22;6792;57.698;11.946;2023-02-01T14:28:41;13.40;52.50
13440;DHT22;6792;57.698;11.946;2023-02-01T14:34:19;13.50;52.00
13440;DHT22;6792;57.698;11.946;2023-02-01T14:36:58;13.50;52.60
13440;DHT22;6792;57.698;11.946;2023-02-01T14:39:36;13.50;52.40
13440;DHT22;6792;57.698;11.946;2023-02-01T14:42:15;13.50;51.80
13440;DHT22;6792;57.698;11.946;2023-02-01T14:44:45;13.40;51.90
13440;DHT22;6792;57.698;11.946;2023-02-01T14:47:34;13.30;51.90
13440;DHT22;6792;57.698;11.946;2023-02-01T14:50:25;13.40;52.50
13440;DHT22;6792;57.698;11.946;2023-02-01T14:53:18;13.40;52.00
13440;DHT22;6792;57.698;11.946;2023-02-01T14:55:51;13.30;52.00
13440;DHT22;6792;57.698;11.946;2023-02-01T14:58:31;13.30;52.20
13440;DHT22;6792;57.698;11.946;2023-02-01T15:01:03;12.10;51.50
13440;DHT22;6792;57.698;11.946;2023-02-01T15:03:43;13.20;51.90
13440;DHT22;6792;57.698;11.946;2023-02-01T15:08:49;13.20;51.90
13440;DHT22;6792;57.698;11.946;2023-02-01T15:11:20;13.20;52.50
13440;DHT22;6792;57.698;11.946;2023-02-01T15:13:52;13.20;52.40
13440;DHT22;6792;57.698;11.946;2023-02-01T15:16:25;13.20;52.40
13440;DHT22;6792;57.698;11.946;2023-02-01T15:19:13;13.10;51.70
13440;DHT22;6792;57.698;11.946;2023-02-01T15:21:49;13.20;51.70
13440;DHT22;6792;57.698;11.946;2023-02-01T15:24:24;13.10;52.30
13440;DHT22;6792;57.698;11.946;2023-02-01T15:26:54;13.10;52.40
13440;DHT22;6792;57.698;11.946;2023-02-01T15:29:25;13.10;52.30
13440;DHT22;6792;57.698;11.946;2023-02-01T15:31:57;13.00;51.70
13440;DHT22;6792;57.698;11.946;2023-02-01T15:37:20;12.90;52.30
13440;DHT22;6792;57.698;11.946;2023-02-01T15:40:21;12.90;52.20
13440;DHT22;6792;57.698;11.946;2023-02-01T15:42:53;12.80;51.60
13440;DHT22;6792;57.698;11.946;2023-02-01T15:45:25;12.80;52.30
13440;DHT22;6792;57.698;11.946;2023-02-01T15:47:57;12.80;52.30
13440;DHT22;6792;57.698;11.946;2023-02-01T15:50:30;12.80;52.20
13440;DHT22;6792;57.698;11.946;2023-02-01T15:53:04;12.80;51.60
13440;DHT22;6792;57.698;11.946;2023-02-01T15:55:37;12.80;52.10
13440;DHT22;6792;57.698;11.946;2023-02-01T15:58:08;12.90;51.60
13440;DHT22;6792;57.698;11.946;2023-02-01T16:00:43;12.90;51.40
13440;DHT22;6792;57.698;11.946;2023-02-01T16:03:27;12.90;51.40
13440;DHT22;6792;57.698;11.946;2023-02-01T16:05:58;12.80;51.90
13440;DHT22;6792;57.698;11.946;2023-02-01T16:08:29;12.80;51.40
13440;DHT22;6792;57.698;11.946;2023-02-01T16:11:16;12.80;51.90
13440;DHT22;6792;57.698;11.946;2023-02-01T16:13:44;12.70;51.70
13440;DHT22;6792;57.698;11.946;2023-02-01T16:16:13;12.60;51.80
13440;DHT22;6792;57.698;11.946;2023-02-01T16:18:43;12.60;51.90
13440;DHT22;6792;57.698;11.946;2023-02-01T16:21:12;12.60;52.00
13440;DHT22;6792;57.698;11.946;2023-02-01T16:23:41;12.60;52.00
13440;DHT22;6792;57.698;11.946;2023-02-01T16:26:10;12.60;52.00
13440;DHT22;6792;57.698;11.946;2023-02-01T16:28:39;12.60;52.00
13440;DHT22;6792;57.698;11.946;2023-02-01T16:31:12;12.60;51.90
13440;DHT22;6792;57.698;11.946;2023-02-01T16:33:46;12.60;51.90
13440;DHT22;6792;57.698;11.946;2023-02-01T16:36:15;12.60;52.10
13440;DHT22;6792;57.698;11.946;2023-02-01T16:38:46;12.50;51.50
13440;DHT22;6792;57.698;11.946;2023-02-01T16:41:19;12.60;52.10
13440;DHT22;6792;57.698;11.946;2023-02-01T16:43:52;12.60;51.60
13440;DHT22;6792;57.698;11.946;2023-02-01T16:46:24;12.60;52.20